sensor_id;sensor_type;location;lat;lon;timestamp;P1;P2;P0
57798;PMS7003;43626;53.866;30.298;2022-10-23T00:04:23;46.6;38.6;23.8
57798;PMS7003;43626;53.866;30.298;2022-10-23T00:09:06;47.6;38.8;23.6
57798;PMS7003;43626;53.866;30.298;2022-10-23T00:14:06;42.6;33.8;21.6
57798;PMS7003;43626;53.866;30.298;2022-10-23T00:18:49;48.2;36.8;23
57798;PMS7003;43626;53.866;30.298;2022-10-23T00:24:17;46.2;37.2;24.2
57798;PMS7003;43626;53.866;30.298;2022-10-23T00:29:23;44.8;35.8;22.4
57798;PMS7003;43626;53.866;30.298;2022-10-23T00:34:17;47.2;37;23.2
57798;PMS7003;43626;53.866;30.298;2022-10-23T00:38:43;44.4;35.4;22
57798;PMS7003;43626;53.866;30.298;2022-10-23T00:43:59;46.4;36.6;23
57798;PMS7003;43626;53.866;30.298;2022-10-23T00:49:06;47.3;38.8;23.5
57798;PMS7003;43626;53.866;30.298;2022-10-23T00:53:58;48.4;37.6;24.2
57798;PMS7003;43626;53.866;30.298;2022-10-23T00:58:57;45.4;37.2;23
57798;PMS7003;43626;53.866;30.298;2022-10-23T01:03:57;43.4;35;22.8
57798;PMS7003;43626;53.866;30.298;2022-10-23T01:09:07;50;39;23
57798;PMS7003;43626;53.866;30.298;2022-10-23T01:14:08;50.2;38.2;23.2
57798;PMS7003;43626;53.866;30.298;2022-10-23T01:19:28;45.4;38.4;23.6
57798;PMS7003;43626;53.866;30.298;2022-10-23T01:24:16;50;39.2;24
57798;PMS7003;43626;53.866;30.298;2022-10-23T01:29:27;49.4;38.8;24.2
57798;PMS7003;43626;53.866;30.298;2022-10-23T01:34:02;47.2;36;21.4
57798;PMS7003;43626;53.866;30.298;2022-10-23T01:38:45;46.8;37.8;23.4
57798;PMS7003;43626;53.866;30.298;2022-10-23T01:44:25;43.2;34.8;21.6
57798;PMS7003;43626;53.866;30.298;2022-10-23T01:49:08;42.5;34.5;21.5
57798;PMS7003;43626;53.866;30.298;2022-10-23T01:54:08;46.8;36;21.8
57798;PMS7003;43626;53.866;30.298;2022-10-23T01:59:18;46.8;37.2;22.4
57798;PMS7003;43626;53.866;30.298;2022-10-23T02:04:17;45.6;37.2;23.4
57798;PMS7003;43626;53.866;30.298;2022-10-23T02:09:05;43.4;34.6;21
57798;PMS7003;43626;53.866;30.298;2022-10-23T02:14:22;45;35;21.8
57798;PMS7003;43626;53.866;30.298;2022-10-23T02:19:24;45.4;36.4;21
57798;PMS7003;43626;53.866;30.298;2022-10-23T02:24:00;46.2;36.2;21.8
57798;PMS7003;43626;53.866;30.298;2022-10-23T02:28:58;45.8;36;22.6
57798;PMS7003;43626;53.866;30.298;2022-10-23T02:34:27;46.8;36.2;21.2
57798;PMS7003;43626;53.866;30.298;2022-10-23T02:39:26;42.8;35;21.2
57798;PMS7003;43626;53.866;30.298;2022-10-23T02:44:27;46.2;35.8;22.2
57798;PMS7003;43626;53.866;30.298;2022-10-23T02:49:09;48;37.5;23.3
57798;PMS7003;43626;53.866;30.298;2022-10-23T02:54:35;46.8;36.4;21.2
57798;PMS7003;43626;53.866;30.298;2022-10-23T02:59:35;45;36.4;20.8
57798;PMS7003;43626;53.866;30.298;2022-10-23T03:04:09;48.8;37.6;23
57798;PMS7003;43626;53.866;30.298;2022-10-23T03:09:06;44.6;36;21.6
57798;PMS7003;43626;53.866;30.298;2022-10-23T03:13:45;47.2;37.4;23
57798;PMS7003;43626;53.866;30.298;2022-10-23T03:19:07;56.6;43;25.4
57798;PMS7003;43626;53.866;30.298;2022-10-23T03:23:55;56.8;44;27
57798;PMS7003;43626;53.866;30.298;2022-10-23T03:29:11;54;41.6;25
57798;PMS7003;43626;53.866;30.298;2022-10-23T03:34:29;52.8;40.2;24.6
57798;PMS7003;43626;53.866;30.298;2022-10-23T03:39:15;47.8;37;22.4
57798;PMS7003;43626;53.866;30.298;2022-10-23T03:44:07;50.6;38.6;23.8
57798;PMS7003;43626;53.866;30.298;2022-10-23T03:49:27;47;36.6;21.8
57798;PMS7003;43626;53.866;30.298;2022-10-23T03:54:15;47;37.5;22.8
57798;PMS7003;43626;53.866;30.298;2022-10-23T03:59:27;49.8;36.4;22.6
57798;PMS7003;43626;53.866;30.298;2022-10-23T04:03:43;48.6;36.8;22
57798;PMS7003;43626;53.866;30.298;2022-10-23T04:09:02;47.4;35.4;21.8
57798;PMS7003;43626;53.866;30.298;2022-10-23T04:14:29;44.6;36;22.6
57798;PMS7003;43626;53.866;30.298;2022-10-23T04:19:21;46.4;36.8;23
57798;PMS7003;43626;53.866;30.298;2022-10-23T04:23:45;46.8;36.6;21.2
57798;PMS7003;43626;53.866;30.298;2022-10-23T04:29:09;47.8;38.2;22.8
57798;PMS7003;43626;53.866;30.298;2022-10-23T04:34:03;44.8;36.4;22.8
57798;PMS7003;43626;53.866;30.298;2022-10-23T04:39:07;46.4;35.8;22.6
57798;PMS7003;43626;53.866;30.298;2022-10-23T04:44:11;48;36.2;21.8
57798;PMS7003;43626;53.866;30.298;2022-10-23T04:49:29;48;36.4;22
57798;PMS7003;43626;53.866;30.298;2022-10-23T04:53:59;43.8;33.3;21.5
57798;PMS7003;43626;53.866;30.298;2022-10-23T04:59:09;47.8;36.2;22.4
57798;PMS7003;43626;53.866;30.298;2022-10-23T05:03:53;41;34;20.2
57798;PMS7003;43626;53.866;30.298;2022-10-23T05:09:29;43.4;34.8;20.8
57798;PMS7003;43626;53.866;30.298;2022-10-23T05:14:17;44.2;37;22.4
57798;PMS7003;43626;53.866;30.298;2022-10-23T05:19:06;47;36.4;22.6
57798;PMS7003;43626;53.866;30.298;2022-10-23T05:24:08;50.4;39.2;24.8
57798;PMS7003;43626;53.866;30.298;2022-10-23T05:29:07;51.4;37.8;23.6
57798;PMS7003;43626;53.866;30.298;2022-10-23T05:34:30;47;36.6;22
57798;PMS7003;43626;53.866;30.298;2022-10-23T05:39:07;45.8;36;21.6
57798;PMS7003;43626;53.866;30.298;2022-10-23T05:43:45;42.2;34.6;20.6
57798;PMS7003;43626;53.866;30.298;2022-10-23T05:48:48;45.8;35.2;21.6
57798;PMS7003;43626;53.866;30.298;2022-10-23T05:53:45;47.8;36.8;22.3
57798;PMS7003;43626;53.866;30.298;2022-10-23T05:59:14;39.6;30.8;18
57798;PMS7003;43626;53.866;30.298;2022-10-23T06:04:21;38.4;32.4;20.2
57798;PMS7003;43626;53.866;30.298;2022-10-23T06:09:15;38.8;32.2;20.2
57798;PMS7003;43626;53.866;30.298;2022-10-23T06:14:29;37;30;18
57798;PMS7003;43626;53.866;30.298;2022-10-23T06:19:08;43.2;33;20.6
57798;PMS7003;43626;53.866;30.298;2022-10-23T06:24:31;43.2;36;23.4
57798;PMS7003;43626;53.866;30.298;2022-10-23T06:29:31;42.6;33.8;21.2
57798;PMS7003;43626;53.866;30.298;2022-10-23T06:34:10;44.2;35.2;21
57798;PMS7003;43626;53.866;30.298;2022-10-23T06:39:11;39.6;32.4;19.8
57798;PMS7003;43626;53.866;30.298;2022-10-23T06:43:59;38.6;30.8;19.6
57798;PMS7003;43626;53.866;30.298;2022-10-23T06:49:31;38.4;33.6;20.4
57798;PMS7003;43626;53.866;30.298;2022-10-23T06:54:22;36.3;33;20
57798;PMS7003;43626;53.866;30.298;2022-10-23T06:59:20;35.4;30.4;19.8
57798;PMS7003;43626;53.866;30.298;2022-10-23T07:04:22;41;34.2;20.6
57798;PMS7003;43626;53.866;30.298;2022-10-23T07:09:16;44.8;35.4;21
57798;PMS7003;43626;53.866;30.298;2022-10-23T07:14:08;55.2;42.8;26.2
57798;PMS7003;43626;53.866;30.298;2022-10-23T07:19:14;53.6;43.2;26.2
57798;PMS7003;43626;53.866;30.298;2022-10-23T07:23:46;54.6;39.4;24.8
57798;PMS7003;43626;53.866;30.298;2022-10-23T07:28:46;47.2;36;22.2
57798;PMS7003;43626;53.866;30.298;2022-10-23T07:34:00;51.2;39.6;24.8
57798;PMS7003;43626;53.866;30.298;2022-10-23T07:39:28;66.6;50.4;29.6
57798;PMS7003;43626;53.866;30.298;2022-10-23T07:44:20;49.6;38;23
57798;PMS7003;43626;53.866;30.298;2022-10-23T07:48:46;50;39;23.6
57798;PMS7003;43626;53.866;30.298;2022-10-23T07:54:08;41.8;33.3;21
57798;PMS7003;43626;53.866;30.298;2022-10-23T07:59:20;38;31;18.6
57798;PMS7003;43626;53.866;30.298;2022-10-23T08:04:32;40.6;33.4;20.6
57798;PMS7003;43626;53.866;30.298;2022-10-23T08:09:10;43.4;34.8;20.8
57798;PMS7003;43626;53.866;30.298;2022-10-23T08:14:00;45;36;22.2
57798;PMS7003;43626;53.866;30.298;2022-10-23T08:18:46;39.4;31.8;19.6
57798;PMS7003;43626;53.866;30.298;2022-10-23T08:23:52;38.4;32.8;19
57798;PMS7003;43626;53.866;30.298;2022-10-23T08:28:46;39.2;33;20.8
57798;PMS7003;43626;53.866;30.298;2022-10-23T08:34:12;44.2;33.6;21.6
57798;PMS7003;43626;53.866;30.298;2022-10-23T08:38:56;46;35.8;21.4
57798;PMS7003;43626;53.866;30.298;2022-10-23T08:44:32;41.4;34.8;21.6
57798;PMS7003;43626;53.866;30.298;2022-10-23T08:48:52;43.8;35.8;21.8
57798;PMS7003;43626;53.866;30.298;2022-10-23T08:54:33;44;35.8;22
57798;PMS7003;43626;53.866;30.298;2022-10-23T08:59:31;56;43;26.3
57798;PMS7003;43626;53.866;30.298;2022-10-23T09:03:46;45.2;33.8;20
57798;PMS7003;43626;53.866;30.298;2022-10-23T09:08:47;43;34.4;21.6
57798;PMS7003;43626;53.866;30.298;2022-10-23T09:13:49;44.6;35.6;22.2
57798;PMS7003;43626;53.866;30.298;2022-10-23T09:19:22;41.8;34.4;20.8
57798;PMS7003;43626;53.866;30.298;2022-10-23T09:24:30;41.8;33.2;19.6
57798;PMS7003;43626;53.866;30.298;2022-10-23T09:29:21;44.8;35;21.2
57798;PMS7003;43626;53.866;30.298;2022-10-23T09:34:22;40.8;33.4;20.4
57798;PMS7003;43626;53.866;30.298;2022-10-23T09:39:20;42;34;20.6
57798;PMS7003;43626;53.866;30.298;2022-10-23T09:44:01;44;32.8;19.2
57798;PMS7003;43626;53.866;30.298;2022-10-23T09:49:20;41.8;33.6;19.6
57798;PMS7003;43626;53.866;30.298;2022-10-23T09:54:30;38.4;31.6;18.2
57798;PMS7003;43626;53.866;30.298;2022-10-23T09:58:51;35.8;30.5;17.5
57798;PMS7003;43626;53.866;30.298;2022-10-23T10:03:47;35.8;30.4;18.6
57798;PMS7003;43626;53.866;30.298;2022-10-23T10:09:28;38;31.4;18.6
57798;PMS7003;43626;53.866;30.298;2022-10-23T10:14:20;36;30.6;18.6
57798;PMS7003;43626;53.866;30.298;2022-10-23T10:19:33;35.2;29.4;16.4
57798;PMS7003;43626;53.866;30.298;2022-10-23T10:24:10;31.2;28.4;17
57798;PMS7003;43626;53.866;30.298;2022-10-23T10:29:33;34.6;28;16.6
57798;PMS7003;43626;53.866;30.298;2022-10-23T10:34:32;50.6;37.8;23.4
57798;PMS7003;43626;53.866;30.298;2022-10-23T10:39:10;52.6;41.4;25.2
57798;PMS7003;43626;53.866;30.298;2022-10-23T10:44:13;42.6;34;21.6
57798;PMS7003;43626;53.866;30.298;2022-10-23T10:49:09;53.2;41.2;25
57798;PMS7003;43626;53.866;30.298;2022-10-23T10:54:02;47.4;37.2;22.2
57798;PMS7003;43626;53.866;30.298;2022-10-23T10:59:00;41.8;34.3;19.8
57798;PMS7003;43626;53.866;30.298;2022-10-23T11:04:31;40.4;32.6;20.2
57798;PMS7003;43626;53.866;30.298;2022-10-23T11:09:32;35.4;29.6;17.6
57798;PMS7003;43626;53.866;30.298;2022-10-23T11:14:18;39.6;31.8;18.4
57798;PMS7003;43626;53.866;30.298;2022-10-23T11:18:49;40.8;34.2;20.6
57798;PMS7003;43626;53.866;30.298;2022-10-23T11:25:30;41.2;33;20.4
57798;PMS7003;43626;53.866;30.298;2022-10-23T11:30:23;38.8;31.6;19.8
57798;PMS7003;43626;53.866;30.298;2022-10-23T11:34:36;41.4;33;19
57798;PMS7003;43626;53.866;30.298;2022-10-23T11:38:46;45.4;34.6;19.6
57798;PMS7003;43626;53.866;30.298;2022-10-23T11:44:23;40.6;34;21
57798;PMS7003;43626;53.866;30.298;2022-10-23T11:49:30;38.2;30.6;17.6
57798;PMS7003;43626;53.866;30.298;2022-10-23T11:54:27;39.2;32.2;19.4
57798;PMS7003;43626;53.866;30.298;2022-10-23T11:59:20;38.3;32.5;19
57798;PMS7003;43626;53.866;30.298;2022-10-23T12:04:21;37.6;31.4;18.4
57798;PMS7003;43626;53.866;30.298;2022-10-23T12:08:49;38.2;31.8;19
57798;PMS7003;43626;53.866;30.298;2022-10-23T12:14:24;39;31.6;18.8
57798;PMS7003;43626;53.866;30.298;2022-10-23T12:19:42;38.2;31.8;18.6
57798;PMS7003;43626;53.866;30.298;2022-10-23T12:24:51;39.4;31.6;18.2
57798;PMS7003;43626;53.866;30.298;2022-10-23T12:28:48;38;32.6;19.8
57798;PMS7003;43626;53.866;30.298;2022-10-23T12:34:14;36.8;29.6;17
57798;PMS7003;43626;53.866;30.298;2022-10-23T12:39:30;40;31.8;18.4
57798;PMS7003;43626;53.866;30.298;2022-10-23T12:44:32;40.6;33;20.2
57798;PMS7003;43626;53.866;30.298;2022-10-23T12:49:32;44.4;35;21.2
57798;PMS7003;43626;53.866;30.298;2022-10-23T12:54:00;46.2;35.4;21.2
57798;PMS7003;43626;53.866;30.298;2022-10-23T12:59:21;51.8;38.2;22.8
57798;PMS7003;43626;53.866;30.298;2022-10-23T13:04:28;56.3;42.8;24.8
57798;PMS7003;43626;53.866;30.298;2022-10-23T13:09:00;49.6;38.6;23.4
57798;PMS7003;43626;53.866;30.298;2022-10-23T13:14:33;59;43.8;25.4
57798;PMS7003;43626;53.866;30.298;2022-10-23T13:19:07;66;47.8;27.8
57798;PMS7003;43626;53.866;30.298;2022-10-23T13:23:46;59;43.6;25.8
57798;PMS7003;43626;53.866;30.298;2022-10-23T13:29:15;55.8;42;24.8
57798;PMS7003;43626;53.866;30.298;2022-10-23T13:34:26;49.2;38.8;22.6
57798;PMS7003;43626;53.866;30.298;2022-10-23T13:39:30;50.4;37.4;22
57798;PMS7003;43626;53.866;30.298;2022-10-23T13:44:18;48.4;37.4;21.6
57798;PMS7003;43626;53.866;30.298;2022-10-23T13:48:46;47;35.6;19.8
57798;PMS7003;43626;53.866;30.298;2022-10-23T13:54:32;49.8;39.4;23
57798;PMS7003;43626;53.866;30.298;2022-10-23T13:59:18;53;39.8;24
57798;PMS7003;43626;53.866;30.298;2022-10-23T14:04:30;44.5;36.5;22
57798;PMS7003;43626;53.866;30.298;2022-10-23T14:08:46;52.4;39.6;22.6
57798;PMS7003;43626;53.866;30.298;2022-10-23T14:14:00;45.6;36.4;21.8
57798;PMS7003;43626;53.866;30.298;2022-10-23T14:19:31;51.2;38;22
57798;PMS7003;43626;53.866;30.298;2022-10-23T14:24:20;51.4;39.6;23.2
57798;PMS7003;43626;53.866;30.298;2022-10-23T14:28:58;56.6;42.4;25.2
57798;PMS7003;43626;53.866;30.298;2022-10-23T14:34:02;51.6;38.4;22.4
57798;PMS7003;43626;53.866;30.298;2022-10-23T14:39:22;44;35;21.2
57798;PMS7003;43626;53.866;30.298;2022-10-23T14:44:10;42.8;36;22.8
57798;PMS7003;43626;53.866;30.298;2022-10-23T14:49:24;45.2;35.8;21.6
57798;PMS7003;43626;53.866;30.298;2022-10-23T14:54:32;44.2;34.4;21.8
57798;PMS7003;43626;53.866;30.298;2022-10-23T14:58:54;45.8;36.2;22
57798;PMS7003;43626;53.866;30.298;2022-10-23T15:04:32;45;36.3;22.8
57798;PMS7003;43626;53.866;30.298;2022-10-23T15:09:28;61;45.2;27.6
57798;PMS7003;43626;53.866;30.298;2022-10-23T15:14:30;63.6;47.2;29.2
57798;PMS7003;43626;53.866;30.298;2022-10-23T15:19:22;56;43.4;27.2
57798;PMS7003;43626;53.866;30.298;2022-10-23T15:24:20;55.2;41.6;25.2
57798;PMS7003;43626;53.866;30.298;2022-10-23T15:29:32;51.2;39.6;24.8
57798;PMS7003;43626;53.866;30.298;2022-10-23T15:34:30;52;40.2;24.8
57798;PMS7003;43626;53.866;30.298;2022-10-23T15:39:25;58.4;44.4;28.2
57798;PMS7003;43626;53.866;30.298;2022-10-23T15:44:21;52.8;41;26.2
57798;PMS7003;43626;53.866;30.298;2022-10-23T15:49:08;66.4;52;32.4
57798;PMS7003;43626;53.866;30.298;2022-10-23T15:54:02;68.2;52.2;33.2
57798;PMS7003;43626;53.866;30.298;2022-10-23T15:59:13;70.2;54.4;33.2
57798;PMS7003;43626;53.866;30.298;2022-10-23T16:04:24;66;49.5;30.5
57798;PMS7003;43626;53.866;30.298;2022-10-23T16:09:28;55.4;43.4;27
57798;PMS7003;43626;53.866;30.298;2022-10-23T16:14:18;50.4;39.8;24
57798;PMS7003;43626;53.866;30.298;2022-10-23T16:19:06;52.4;39.2;23.8
57798;PMS7003;43626;53.866;30.298;2022-10-23T16:24:30;49;37.6;23.4
57798;PMS7003;43626;53.866;30.298;2022-10-23T16:29:16;54;41.4;26
57798;PMS7003;43626;53.866;30.298;2022-10-23T16:34:32;49.2;37.8;23.2
57798;PMS7003;43626;53.866;30.298;2022-10-23T16:39:08;44.2;35.2;21
57798;PMS7003;43626;53.866;30.298;2022-10-23T16:43:46;40.8;33.6;20.6
57798;PMS7003;43626;53.866;30.298;2022-10-23T16:49:30;42.2;33;20
57798;PMS7003;43626;53.866;30.298;2022-10-23T16:54:12;40.6;33.8;20.2
57798;PMS7003;43626;53.866;30.298;2022-10-23T16:59:00;38;31.4;17.8
57798;PMS7003;43626;53.866;30.298;2022-10-23T17:04:20;34.4;29.8;17.4
57798;PMS7003;43626;53.866;30.298;2022-10-23T17:09:02;36.8;30.3;17
57798;PMS7003;43626;53.866;30.298;2022-10-23T17:14:11;32;26.8;16.6
57798;PMS7003;43626;53.866;30.298;2022-10-23T17:19:24;36.2;29.2;16
57798;PMS7003;43626;53.866;30.298;2022-10-23T17:24:32;35.8;29.2;16.8
57798;PMS7003;43626;53.866;30.298;2022-10-23T17:28:46;34.2;27.8;16.6
57798;PMS7003;43626;53.866;30.298;2022-10-23T17:34:01;28.2;22.8;14
57798;PMS7003;43626;53.866;30.298;2022-10-23T17:39:28;25.4;21;13.2
57798;PMS7003;43626;53.866;30.298;2022-10-23T17:44:30;25.8;21.2;14
57798;PMS7003;43626;53.866;30.298;2022-10-23T17:49:30;27.6;23.8;14.6
57798;PMS7003;43626;53.866;30.298;2022-10-23T17:54:09;23.2;18.6;11.6
57798;PMS7003;43626;53.866;30.298;2022-10-23T17:59:30;20.4;18;11.2
57798;PMS7003;43626;53.866;30.298;2022-10-23T18:04:30;19.4;16.8;11.2
57798;PMS7003;43626;53.866;30.298;2022-10-23T18:09:06;18;16.3;10.5
57798;PMS7003;43626;53.866;30.298;2022-10-23T18:13:46;21;18.4;12.2
57798;PMS7003;43626;53.866;30.298;2022-10-23T18:18:46;21.8;17.8;11
57798;PMS7003;43626;53.866;30.298;2022-10-23T18:23:52;18.4;15.6;10.6
57798;PMS7003;43626;53.866;30.298;2022-10-23T18:28:46;17.2;14.6;10
57798;PMS7003;43626;53.866;30.298;2022-10-23T18:34:15;17.4;15.2;9.8
57798;PMS7003;43626;53.866;30.298;2022-10-23T18:39:30;20.2;17.2;10.8
57798;PMS7003;43626;53.866;30.298;2022-10-23T18:44:18;20.4;17.4;11.6
57798;PMS7003;43626;53.866;30.298;2022-10-23T18:49:10;23;19.2;12
57798;PMS7003;43626;53.866;30.298;2022-10-23T18:54:30;15;13.8;9.2
57798;PMS7003;43626;53.866;30.298;2022-10-23T18:59:19;12.6;12.2;8.4
57798;PMS7003;43626;53.866;30.298;2022-10-23T19:04:30;15.8;13.8;8.6
57798;PMS7003;43626;53.866;30.298;2022-10-23T19:09:00;16.8;15;9.5
57798;PMS7003;43626;53.866;30.298;2022-10-23T19:13:46;16;14.2;9.4
57798;PMS7003;43626;53.866;30.298;2022-10-23T19:19:27;17.4;15;9.4
57798;PMS7003;43626;53.866;30.298;2022-10-23T19:24:20;23;20.6;13.6
57798;PMS7003;43626;53.866;30.298;2022-10-23T19:29:10;22.2;19.2;13
57798;PMS7003;43626;53.866;30.298;2022-10-23T19:34:20;14.6;12.4;8.6
57798;PMS7003;43626;53.866;30.298;2022-10-23T19:39:02;17.6;14.8;10
57798;PMS7003;43626;53.866;30.298;2022-10-23T19:44:18;36.6;30.4;15.6
57798;PMS7003;43626;53.866;30.298;2022-10-23T19:49:00;27.6;21;11.2
57798;PMS7003;43626;53.866;30.298;2022-10-23T19:54:22;11.2;9.8;6.6
57798;PMS7003;43626;53.866;30.298;2022-10-23T19:58:46;10.6;9.4;5.8
57798;PMS7003;43626;53.866;30.298;2022-10-23T20:03:46;9.6;9.2;6
57798;PMS7003;43626;53.866;30.298;2022-10-23T20:09:14;11;10.3;7
57798;PMS7003;43626;53.866;30.298;2022-10-23T20:14:28;11.4;10.2;6.8
57798;PMS7003;43626;53.866;30.298;2022-10-23T20:19:18;11.4;10;7
57798;PMS7003;43626;53.866;30.298;2022-10-23T20:23:46;7.8;7.4;5.4
57798;PMS7003;43626;53.866;30.298;2022-10-23T20:28:53;7.8;6.2;4.6
57798;PMS7003;43626;53.866;30.298;2022-10-23T20:34:22;8.6;7;4.4
57798;PMS7003;43626;53.866;30.298;2022-10-23T20:39:30;7.2;6.6;4.4
57798;PMS7003;43626;53.866;30.298;2022-10-23T20:43:54;7.6;6.6;4.8
57798;PMS7003;43626;53.866;30.298;2022-10-23T20:49:02;7;5.8;4
57798;PMS7003;43626;53.866;30.298;2022-10-23T20:53:46;7.8;5.4;3.4
57798;PMS7003;43626;53.866;30.298;2022-10-23T20:58:46;7;5.6;3.4
57798;PMS7003;43626;53.866;30.298;2022-10-23T21:04:14;5.8;5;3.4
57798;PMS7003;43626;53.866;30.298;2022-10-23T21:09:10;4.4;4;2.8
57798;PMS7003;43626;53.866;30.298;2022-10-23T21:13:48;5.5;5.3;3
57798;PMS7003;43626;53.866;30.298;2022-10-23T21:19:28;4.8;4.6;2.6
57798;PMS7003;43626;53.866;30.298;2022-10-23T21:24:09;4.6;4;3
57798;PMS7003;43626;53.866;30.298;2022-10-23T21:29:32;5.6;4.2;2.6
57798;PMS7003;43626;53.866;30.298;2022-10-23T21:34:30;5.4;3.4;2.4
57798;PMS7003;43626;53.866;30.298;2022-10-23T21:39:10;5.6;4.6;2.8
57798;PMS7003;43626;53.866;30.298;2022-10-23T21:44:01;6.8;6;3.6
57798;PMS7003;43626;53.866;30.298;2022-10-23T21:48:46;6;5;3
57798;PMS7003;43626;53.866;30.298;2022-10-23T21:54:32;6.6;4.6;3.2
57798;PMS7003;43626;53.866;30.298;2022-10-23T21:59:25;5.4;5;2.8
57798;PMS7003;43626;53.866;30.298;2022-10-23T22:03:48;5.6;5;3
57798;PMS7003;43626;53.866;30.298;2022-10-23T22:09:09;7.4;5.8;3.6
57798;PMS7003;43626;53.866;30.298;2022-10-23T22:14:18;6.3;5.5;3.5
57798;PMS7003;43626;53.866;30.298;2022-10-23T22:19:11;7.2;5.8;3.2
57798;PMS7003;43626;53.866;30.298;2022-10-23T22:24:24;5.4;4;2.6
57798;PMS7003;43626;53.866;30.298;2022-10-23T22:29:09;5.6;4.6;3.2
57798;PMS7003;43626;53.866;30.298;2022-10-23T22:33:47;7;4.8;3.2
57798;PMS7003;43626;53.866;30.298;2022-10-23T22:39:00;6;5.4;2.8
57798;PMS7003;43626;53.866;30.298;2022-10-23T22:44:20;6.4;5;3
57798;PMS7003;43626;53.866;30.298;2022-10-23T22:49:20;5.8;5;3.2
57798;PMS7003;43626;53.866;30.298;2022-10-23T22:54:06;5.8;5.2;2.6
57798;PMS7003;43626;53.866;30.298;2022-10-23T22:59:06;5.2;4.8;3
57798;PMS7003;43626;53.866;30.298;2022-10-23T23:04:20;5.6;5.6;3.2
57798;PMS7003;43626;53.866;30.298;2022-10-23T23:09:33;5.6;4.8;3.2
57798;PMS7003;43626;53.866;30.298;2022-10-23T23:14:10;7;6.5;3.8
57798;PMS7003;43626;53.866;30.298;2022-10-23T23:18:46;10.2;9.4;5.8
57798;PMS7003;43626;53.866;30.298;2022-10-23T23:23:44;8;7.4;4.6
57798;PMS7003;43626;53.866;30.298;2022-10-23T23:28:58;11.6;8.8;5.4
57798;PMS7003;43626;53.866;30.298;2022-10-23T23:34:10;7.8;6.4;4.2
57798;PMS7003;43626;53.866;30.298;2022-10-23T23:39:10;7.4;5.8;3.6
57798;PMS7003;43626;53.866;30.298;2022-10-23T23:44:16;4.6;4.2;3
57798;PMS7003;43626;53.866;30.298;2022-10-23T23:49:26;4.6;4;3
57798;PMS7003;43626;53.866;30.298;2022-10-23T23:54:06;5.4;3.4;2
57798;PMS7003;43626;53.866;30.298;2022-10-23T23:59:26;4.2;3.8;2.8
